Time;durP1;ratioP1;P1;durP2;ratioP2;P2;SDS_P1;SDS_P2;PMS_P1;PMS_P2;Temp;Humidity;BMP_temperature;BMP_pressure;BME280_temperature;BME280_humidity;BME280_pressure;Samples;Min_cycle;Max_cycle;Signal;HPM_P1;HPM_P2
2022/07/05 00:00:48;;;;;;;;;;;;;;;23.49;59.49;100983.59;1726281;81;27461;-56
2022/07/05 00:03:15;;;;;;;;;;;;;;;23.50;59.80;100989.40;1715024;82;25804;-56
2022/07/05 00:05:42;;;;;;;;;;;;;;;23.52;59.62;100987.28;1730809;81;25779;-56
2022/07/05 00:08:09;;;;;;;;;;;;;;;23.55;60.00;100992.87;1753054;80;25751;-55
2022/07/05 00:10:37;;;;;;;;;;;;;;;23.55;59.78;100992.36;1712961;80;25880;-56
2022/07/05 00:13:05;;;;;;;;;;;;;;;23.56;59.83;100983.58;1706912;82;27877;-56
2022/07/05 00:15:31;;;;;;;;;;;;;;;23.53;60.16;100989.52;1729687;80;25784;-56
2022/07/05 00:17:58;;;;;;;;;;;;;;;23.51;60.28;100994.38;1734300;81;25807;-56
2022/07/05 00:20:25;;;;;;;;;;;;;;;23.50;60.49;101000.38;1716224;81;25920;-56
2022/07/05 00:22:52;;;;;;;;;;;;;;;23.46;60.41;101000.52;1725244;79;25442;-56
2022/07/05 00:25:19;;;;;;;;;;;;;;;23.39;60.47;100993.67;1719903;81;27492;-56
2022/07/05 00:27:46;;;;;;;;;;;;;;;23.35;60.55;100999.30;1724631;81;25908;-55
2022/07/05 00:30:14;;;;;;;;;;;;;;;23.28;60.60;100992.45;1734773;81;25472;-56
2022/07/05 00:32:40;;;;;;;;;;;;;;;23.24;60.46;100991.72;1727654;82;26520;-55
2022/07/05 00:35:08;;;;;;;;;;;;;;;23.19;60.64;100993.73;1707700;81;26468;-55
2022/07/05 00:37:35;;;;;;;;;;;;;;;23.16;60.94;100998.23;1700765;82;28431;-56
2022/07/05 00:40:03;;;;;;;;;;;;;;;23.14;61.02;101002.58;1690777;83;25839;-56
2022/07/05 00:42:29;;;;;;;;;;;;;;;23.14;60.96;100998.47;1683032;84;25861;-57
2022/07/05 00:44:56;;;;;;;;;;;;;;;23.13;60.88;101002.27;1702953;82;26062;-55
2022/07/05 00:47:23;;;;;;;;;;;;;;;23.12;60.95;101003.31;1718786;82;25470;-56
2022/07/05 00:49:50;;;;;;;;;;;;;;;23.10;60.75;101003.22;1723639;82;27405;-55
2022/07/05 00:52:17;;;;;;;;;;;;;;;23.09;61.06;101006.48;1719699;82;25987;-56
2022/07/05 00:54:44;;;;;;;;;;;;;;;23.08;61.29;101006.70;1716500;82;25860;-56
2022/07/05 00:57:10;;;;;;;;;;;;;;;23.05;61.74;101004.38;1709495;82;25830;-56
2022/07/05 00:59:37;;;;;;;;;;;;;;;23.01;61.96;100999.84;1708185;83;26013;-55
2022/07/05 01:02:04;;;;;;;;;;;;;;;22.92;61.68;100991.02;1707090;83;27481;-56
2022/07/05 01:04:31;;;;;;;;;;;;;;;22.91;61.83;101001.66;1662751;84;25798;-56
2022/07/05 01:06:58;;;;;;;;;;;;;;;22.90;62.09;100999.14;1692720;82;26559;-56
2022/07/05 01:09:24;;;;;;;;;;;;;;;22.91;62.09;101000.30;1719294;81;25884;-56
2022/07/05 01:11:51;;;;;;;;;;;;;;;22.94;62.32;100992.16;1725366;81;25930;-56
2022/07/05 01:14:20;;;;;;;;;;;;;;;22.94;62.19;100991.65;1720729;81;27502;-56
2022/07/05 01:16:48;;;;;;;;;;;;;;;22.91;62.00;100991.20;1736220;80;25515;-56
2022/07/05 01:19:17;;;;;;;;;;;;;;;22.87;62.08;100999.56;1717818;81;25805;-56
2022/07/05 01:21:45;;;;;;;;;;;;;;;22.84;62.21;101003.58;1720454;82;25883;-56
2022/07/05 01:24:14;;;;;;;;;;;;;;;22.82;62.21;101001.03;1708084;81;25755;-56
2022/07/05 01:26:43;;;;;;;;;;;;;;;22.80;62.01;101005.05;1700065;82;27496;-56
2022/07/05 01:29:09;;;;;;;;;;;;;;;22.78;62.26;101003.89;1700332;83;25784;-56
2022/07/05 01:31:38;;;;;;;;;;;;;;;22.79;62.02;101012.95;1702523;82;25734;-56
2022/07/05 01:34:05;;;;;;;;;;;;;;;22.82;62.04;101022.14;1733110;82;25911;-55
2022/07/05 01:36:33;;;;;;;;;;;;;;;22.81;61.99;101017.19;1725006;80;25732;-55
2022/07/05 01:39:01;;;;;;;;;;;;;;;22.78;62.42;101014.86;1715996;81;27471;-56
2022/07/05 01:41:28;;;;;;;;;;;;;;;22.77;62.27;101015.91;1719249;81;25849;-56
2022/07/05 01:43:55;;;;;;;;;;;;;;;22.75;62.44;101015.27;1712544;81;25774;-56
2022/07/05 01:46:22;;;;;;;;;;;;;;;22.72;62.23;101014.86;1731756;80;25879;-56
2022/07/05 01:48:51;;;;;;;;;;;;;;;22.68;62.25;101024.58;1728652;81;25844;-56
2022/07/05 01:51:25;;;;;;;;;;;;;;;22.65;62.33;101025.81;1722524;80;27651;-56
2022/07/05 01:53:53;;;;;;;;;;;;;;;22.64;63.04;101026.87;1721333;80;25939;-56
2022/07/05 01:56:20;;;;;;;;;;;;;;;22.51;63.19;101024.45;1717138;81;25773;-56
2022/07/05 01:58:46;;;;;;;;;;;;;;;22.47;63.28;101025.91;1725670;82;25796;-56
2022/07/05 02:01:13;;;;;;;;;;;;;;;22.43;63.49;101028.77;1714034;81;25987;-55
2022/07/05 02:03:40;;;;;;;;;;;;;;;22.39;63.74;101022.51;1737781;81;27415;-56
2022/07/05 02:06:10;;;;;;;;;;;;;;;22.38;63.83;101023.02;1733240;80;26450;-56
2022/07/05 02:08:37;;;;;;;;;;;;;;;22.39;63.96;101019.23;1721496;81;25719;-55
2022/07/05 02:11:05;;;;;;;;;;;;;;;22.42;64.09;101020.22;1710312;81;25839;-56
2022/07/05 02:13:32;;;;;;;;;;;;;;;22.44;63.95;101015.89;1706390;81;27273;-55
2022/07/05 02:15:59;;;;;;;;;;;;;;;22.47;63.64;101018.23;1707023;82;27590;-55
2022/07/05 02:18:26;;;;;;;;;;;;;;;22.48;64.01;101017.18;1707704;82;25831;-56
2022/07/05 02:20:54;;;;;;;;;;;;;;;22.50;64.16;101018.66;1714583;81;25515;-55
2022/07/05 02:23:20;;;;;;;;;;;;;;;22.50;63.84;101018.66;1721135;81;25806;-55
2022/07/05 02:25:47;;;;;;;;;;;;;;;22.50;63.78;101010.42;1725081;80;25742;-56
2022/07/05 02:28:16;;;;;;;;;;;;;;;22.47;63.84;101009.47;1732535;80;29486;-55
2022/07/05 02:30:44;;;;;;;;;;;;;;;22.45;63.72;101011.59;1724096;82;27233;-56
2022/07/05 02:33:11;;;;;;;;;;;;;;;22.46;63.88;101012.42;1725676;81;25770;-56
2022/07/05 02:35:38;;;;;;;;;;;;;;;22.40;64.21;101009.99;1738180;82;25912;-56
2022/07/05 02:38:05;;;;;;;;;;;;;;;22.29;63.60;100994.13;1721796;82;25684;-56
2022/07/05 02:40:32;;;;;;;;;;;;;;;22.25;63.52;100999.72;1718529;82;27718;-55
2022/07/05 02:43:00;;;;;;;;;;;;;;;22.23;63.63;101010.04;1720889;82;25705;-56
2022/07/05 02:45:27;;;;;;;;;;;;;;;22.20;63.71;100999.80;1722423;81;25926;-56
2022/07/05 02:47:57;;;;;;;;;;;;;;;22.20;63.70;101005.83;1752425;80;25887;-56
2022/07/05 02:50:24;;;;;;;;;;;;;;;22.22;63.80;101020.17;1740441;80;26071;-56
2022/07/05 02:52:51;;;;;;;;;;;;;;;22.24;64.18;101019.95;1721124;81;27521;-55
2022/07/05 02:55:18;;;;;;;;;;;;;;;22.28;64.33;101019.33;1725881;81;25662;-56
2022/07/05 02:57:45;;;;;;;;;;;;;;;22.32;63.99;101023.86;1720311;81;25750;-55
2022/07/05 03:00:14;;;;;;;;;;;;;;;22.27;63.95;101028.59;1695469;83;26101;-56
2022/07/05 03:02:42;;;;;;;;;;;;;;;22.29;64.19;101016.05;1701209;83;25673;-56
2022/07/05 03:05:09;;;;;;;;;;;;;;;22.28;64.13;101021.20;1695025;83;27491;-56
2022/07/05 03:07:37;;;;;;;;;;;;;;;22.28;64.17;101028.92;1716733;82;25845;-56
2022/07/05 03:10:05;;;;;;;;;;;;;;;22.29;64.32;101031.13;1724600;82;25831;-57
2022/07/05 03:12:33;;;;;;;;;;;;;;;22.27;64.33;101034.08;1710460;82;25883;-56
2022/07/05 03:15:01;;;;;;;;;;;;;;;22.27;64.35;101039.56;1720166;82;25821;-56
2022/07/05 03:17:28;;;;;;;;;;;;;;;22.28;64.50;101042.62;1710274;82;27578;-57
2022/07/05 03:19:55;;;;;;;;;;;;;;;22.32;64.50;101049.90;1706354;82;25793;-56
2022/07/05 03:22:22;;;;;;;;;;;;;;;22.30;64.48;101044.63;1706891;83;25868;-56
2022/07/05 03:24:49;;;;;;;;;;;;;;;22.33;64.43;101053.79;1701688;82;25944;-56
2022/07/05 03:27:16;;;;;;;;;;;;;;;22.37;64.50;101055.59;1710906;82;25818;-56
2022/07/05 03:29:43;;;;;;;;;;;;;;;22.41;65.02;101058.81;1720858;82;27011;-56
2022/07/05 03:32:10;;;;;;;;;;;;;;;22.45;65.21;101054.59;1709679;82;25857;-56
2022/07/05 03:34:38;;;;;;;;;;;;;;;22.46;66.03;101059.86;1701187;83;25731;-56
2022/07/05 03:37:07;;;;;;;;;;;;;;;22.41;65.63;101052.80;1722650;82;25844;-56
2022/07/05 03:39:34;;;;;;;;;;;;;;;22.42;65.52;101049.52;1725636;81;25865;-56
2022/07/05 03:42:01;;;;;;;;;;;;;;;22.48;65.36;101050.91;1721600;82;28199;-56
2022/07/05 03:44:31;;;;;;;;;;;;;;;22.55;65.16;101048.72;1733644;81;25735;-56
2022/07/05 03:46:57;;;;;;;;;;;;;;;22.62;65.28;101050.39;1727444;81;25850;-57
2022/07/05 03:49:25;;;;;;;;;;;;;;;22.70;64.90;101050.73;1722732;81;26100;-56
2022/07/05 03:51:52;;;;;;;;;;;;;;;22.77;65.03;101054.85;1721738;81;25763;-57
2022/07/05 03:54:18;;;;;;;;;;;;;;;22.75;64.74;101051.47;1703046;82;28209;-56
2022/07/05 03:56:45;;;;;;;;;;;;;;;22.80;64.64;101045.67;1695396;82;25816;-57
2022/07/05 03:59:12;;;;;;;;;;;;;;;22.84;64.80;101051.58;1724792;81;25837;-56
2022/07/05 04:01:39;;;;;;;;;;;;;;;22.87;64.49;101050.30;1725911;82;26034;-56
2022/07/05 04:04:06;;;;;;;;;;;;;;;22.92;64.45;101044.50;1729427;80;25864;-56
2022/07/05 04:06:33;;;;;;;;;;;;;;;22.99;64.08;101043.14;1714826;82;27488;-56
2022/07/05 04:09:01;;;;;;;;;;;;;;;23.04;64.09;101051.56;1723614;81;25787;-56
2022/07/05 04:11:28;;;;;;;;;;;;;;;23.09;64.12;101049.55;1728870;81;25799;-56
2022/07/05 04:13:55;;;;;;;;;;;;;;;23.14;63.93;101048.37;1727286;81;26399;-56
2022/07/05 04:16:22;;;;;;;;;;;;;;;23.22;63.84;101052.83;1724933;80;27382;-56
2022/07/05 04:18:48;;;;;;;;;;;;;;;23.31;63.95;101052.09;1716266;80;27875;-56
2022/07/05 04:21:15;;;;;;;;;;;;;;;23.39;63.71;101051.86;1712377;81;25987;-57
2022/07/05 04:23:42;;;;;;;;;;;;;;;23.42;63.41;101046.78;1719350;81;25757;-57
2022/07/05 04:26:10;;;;;;;;;;;;;;;23.50;63.45;101049.80;1716698;81;25878;-57
2022/07/05 04:28:38;;;;;;;;;;;;;;;23.57;63.15;101045.67;1720923;81;26201;-57
2022/07/05 04:31:08;;;;;;;;;;;;;;;23.64;63.08;101048.41;1729030;81;26907;-56
2022/07/05 04:33:37;;;;;;;;;;;;;;;23.70;62.85;101049.77;1727438;80;25763;-56
2022/07/05 04:36:05;;;;;;;;;;;;;;;23.75;62.62;101049.94;1743720;80;25934;-56
2022/07/05 04:38:32;;;;;;;;;;;;;;;23.82;62.48;101051.81;1725954;80;25852;-56
2022/07/05 04:41:00;;;;;;;;;;;;;;;23.89;62.29;101060.34;1726476;81;25863;-56
2022/07/05 04:43:27;;;;;;;;;;;;;;;23.98;62.18;101058.20;1732692;80;27723;-56
2022/07/05 04:45:54;;;;;;;;;;;;;;;24.04;61.97;101059.23;1712400;80;25839;-56
2022/07/05 04:48:21;;;;;;;;;;;;;;;24.05;61.11;101064.54;1724505;81;25753;-56
2022/07/05 04:50:47;;;;;;;;;;;;;;;24.05;61.01;101069.17;1725273;80;25778;-56
2022/07/05 04:53:14;;;;;;;;;;;;;;;24.10;60.98;101063.88;1709678;82;25813;-56
2022/07/05 04:55:41;;;;;;;;;;;;;;;24.16;60.73;101065.73;1716411;82;27477;-57
2022/07/05 04:58:07;;;;;;;;;;;;;;;24.20;60.29;101061.50;1721488;81;25741;-57
2022/07/05 05:00:34;;;;;;;;;;;;;;;24.25;60.07;101058.61;1723522;81;25741;-56
2022/07/05 05:03:01;;;;;;;;;;;;;;;24.30;59.78;101060.16;1712554;82;25792;-57
2022/07/05 05:05:27;;;;;;;;;;;;;;;24.33;59.56;101067.45;1717946;81;25863;-56
2022/07/05 05:07:54;;;;;;;;;;;;;;;24.36;59.23;101064.24;1733157;81;28075;-56
2022/07/05 05:10:21;;;;;;;;;;;;;;;24.40;58.99;101065.19;1737455;81;25799;-56
2022/07/05 05:12:47;;;;;;;;;;;;;;;24.43;59.01;101066.12;1732030;80;25940;-58
2022/07/05 05:15:14;;;;;;;;;;;;;;;24.46;58.96;101066.53;1723290;81;26560;-56
2022/07/05 05:17:42;;;;;;;;;;;;;;;24.50;58.84;101059.50;1736085;81;26210;-56
2022/07/05 05:20:16;;;;;;;;;;;;;;;24.52;58.61;101057.89;1740219;81;27469;-56
2022/07/05 05:22:43;;;;;;;;;;;;;;;24.54;58.32;101055.25;1729515;81;25633;-56
2022/07/05 05:25:12;;;;;;;;;;;;;;;24.60;58.13;101062.29;1713256;81;25695;-57
2022/07/05 05:27:45;;;;;;;;;;;;;;;24.65;57.92;101058.36;1705023;82;25899;-56
2022/07/05 05:30:13;;;;;;;;;;;;;;;24.69;57.93;101060.47;1692142;82;25822;-57
2022/07/05 05:32:40;;;;;;;;;;;;;;;24.74;58.05;101055.67;1679434;83;27470;-56
2022/07/05 05:35:07;;;;;;;;;;;;;;;24.78;58.01;101058.81;1683158;82;25813;-56
2022/07/05 05:37:51;;;;;;;;;;;;;;;24.82;58.10;101065.54;1687189;82;25832;-56
2022/07/05 05:40:19;;;;;;;;;;;;;;;24.85;57.78;101060.97;1686523;82;25721;-57
2022/07/05 05:42:46;;;;;;;;;;;;;;;24.89;57.57;101062.73;1688910;82;25949;-56
2022/07/05 05:45:12;;;;;;;;;;;;;;;24.95;57.50;101065.95;1704160;81;27480;-57
2022/07/05 05:47:54;;;;;;;;;;;;;;;25.00;57.38;101064.22;1742316;80;25859;-56
2022/07/05 05:50:23;;;;;;;;;;;;;;;25.05;57.27;101058.03;1722499;81;25876;-57
2022/07/05 05:52:50;;;;;;;;;;;;;;;25.10;57.16;101058.73;1732270;81;25853;-56
2022/07/05 05:55:18;;;;;;;;;;;;;;;25.14;57.07;101062.19;1720592;80;26423;-56
2022/07/05 05:57:45;;;;;;;;;;;;;;;25.19;57.17;101056.00;1729342;81;27567;-56
2022/07/05 06:00:13;;;;;;;;;;;;;;;25.26;57.06;101062.28;1699600;82;27354;-57
2022/07/05 06:02:40;;;;;;;;;;;;;;;25.35;56.97;101058.70;1709352;81;25732;-56
2022/07/05 06:05:08;;;;;;;;;;;;;;;25.43;56.97;101060.33;1715368;80;25867;-56
2022/07/05 06:07:52;;;;;;;;;;;;;;;25.50;56.98;101062.50;1755127;80;25493;-56
2022/07/05 06:10:24;;;;;;;;;;;;;;;25.56;57.16;101064.33;1718804;81;27540;-57
2022/07/05 06:12:53;;;;;;;;;;;;;;;25.65;57.07;101064.84;1712235;82;25318;-56
2022/07/05 06:15:20;;;;;;;;;;;;;;;25.70;57.04;101066.39;1712097;81;25927;-57
2022/07/05 06:17:47;;;;;;;;;;;;;;;25.78;56.98;101059.71;1719616;80;25809;-56
2022/07/05 06:20:17;;;;;;;;;;;;;;;25.85;57.16;101062.39;1718191;82;25708;-56
2022/07/05 06:22:43;;;;;;;;;;;;;;;25.93;57.12;101064.83;1737311;80;27651;-56
2022/07/05 06:25:10;;;;;;;;;;;;;;;26.01;57.05;101073.33;1717904;81;27294;-58
2022/07/05 06:27:46;;;;;;;;;;;;;;;26.08;56.92;101075.45;1733450;81;25917;-57
2022/07/05 06:30:17;;;;;;;;;;;;;;;26.15;56.92;101069.34;1730807;80;25769;-56
2022/07/05 06:32:44;;;;;;;;;;;;;;;26.22;56.82;101071.46;1727352;80;27405;-56
2022/07/05 06:35:12;;;;;;;;;;;;;;;26.30;56.63;101065.34;1729338;81;26811;-57
2022/07/05 06:37:47;;;;;;;;;;;;;;;26.38;56.73;101068.59;1726405;81;25735;-56
2022/07/05 06:40:19;;;;;;;;;;;;;;;26.46;56.74;101065.19;1721503;82;25859;-57
2022/07/05 06:42:46;;;;;;;;;;;;;;;26.52;56.25;101059.58;1714708;82;25786;-57
2022/07/05 06:45:15;;;;;;;;;;;;;;;26.61;56.34;101061.47;1718145;82;25731;-57
2022/07/05 06:47:42;;;;;;;;;;;;;;;26.69;56.49;101067.16;1730308;81;28253;-56
2022/07/05 06:50:12;;;;;;;;;;;;;;;26.76;56.15;101063.75;1723211;81;25437;-57
2022/07/05 06:52:39;;;;;;;;;;;;;;;26.85;55.76;101056.84;1718076;81;25784;-57
2022/07/05 06:55:07;;;;;;;;;;;;;;;26.94;55.46;101051.82;1724960;81;25882;-57
2022/07/05 06:57:33;;;;;;;;;;;;;;;27.03;55.28;101055.05;1717504;81;26208;-56
2022/07/05 07:00:01;;;;;;;;;;;;;;;27.10;55.02;101054.41;1710899;81;27477;-56
2022/07/05 07:02:28;;;;;;;;;;;;;;;27.17;55.03;101048.22;1726717;81;26633;-55
2022/07/05 07:04:54;;;;;;;;;;;;;;;27.29;54.70;101052.91;1728481;81;25806;-56
2022/07/05 07:10:08;;;;;;;;;;;;;;;27.48;54.75;101057.77;1722037;81;25775;-56
2022/07/05 07:12:34;;;;;;;;;;;;;;;27.61;54.20;101060.80;1719264;82;27589;-57
2022/07/05 07:15:01;;;;;;;;;;;;;;;27.73;53.27;101052.48;1718970;81;25891;-56
2022/07/05 07:17:28;;;;;;;;;;;;;;;27.84;53.24;101052.17;1713817;82;25786;-56
2022/07/05 07:19:55;;;;;;;;;;;;;;;27.94;52.78;101052.35;1713587;83;27955;-56
2022/07/05 07:22:21;;;;;;;;;;;;;;;28.03;52.52;101048.11;1727878;80;25668;-56
2022/07/05 07:24:48;;;;;;;;;;;;;;;28.13;52.04;101049.43;1708813;81;27176;-56
2022/07/05 07:27:15;;;;;;;;;;;;;;;28.20;51.21;101049.59;1709880;80;26492;-56
2022/07/05 07:29:43;;;;;;;;;;;;;;;28.32;51.34;101047.31;1719292;81;25729;-56
2022/07/05 07:32:09;;;;;;;;;;;;;;;28.42;51.11;101046.09;1706057;82;25855;-56
2022/07/05 07:34:37;;;;;;;;;;;;;;;28.51;51.18;101043.77;1723629;81;25821;-56
2022/07/05 07:37:04;;;;;;;;;;;;;;;28.60;51.09;101042.82;1705308;82;27484;-57
2022/07/05 07:39:31;;;;;;;;;;;;;;;28.71;50.34;101044.68;1710673;82;25809;-56
2022/07/05 07:41:58;;;;;;;;;;;;;;;28.78;49.86;101038.42;1718785;81;25858;-56
2022/07/05 07:44:25;;;;;;;;;;;;;;;28.90;49.94;101036.98;1713216;81;26602;-56
2022/07/05 07:46:52;;;;;;;;;;;;;;;29.00;48.60;101039.05;1704709;82;25864;-56
2022/07/05 07:49:19;;;;;;;;;;;;;;;29.12;48.63;101036.17;1692835;83;28504;-56
2022/07/05 07:51:45;;;;;;;;;;;;;;;29.24;47.40;101037.45;1705179;82;25819;-56
2022/07/05 07:54:12;;;;;;;;;;;;;;;29.36;47.61;101032.67;1690412;83;25493;-56
2022/07/05 07:56:38;;;;;;;;;;;;;;;29.47;47.31;101035.02;1699785;81;27876;-56
2022/07/05 07:59:05;;;;;;;;;;;;;;;29.57;46.00;101030.19;1726871;81;25816;-56
2022/07/05 08:01:31;;;;;;;;;;;;;;;29.63;46.01;101029.97;1716453;80;27557;-57
2022/07/05 08:03:58;;;;;;;;;;;;;;;29.71;46.62;101033.41;1721014;81;25736;-56
2022/07/05 08:06:25;;;;;;;;;;;;;;;29.80;46.36;101034.63;1715602;81;25895;-56
2022/07/05 08:08:52;;;;;;;;;;;;;;;29.87;46.55;101028.86;1715426;82;25820;-56
2022/07/05 08:11:19;;;;;;;;;;;;;;;29.89;46.64;101024.75;1712719;82;25782;-57
2022/07/05 08:13:45;;;;;;;;;;;;;;;29.94;44.67;101024.83;1715834;82;27565;-56
2022/07/05 08:16:12;;;;;;;;;;;;;;;30.01;44.62;101023.23;1713131;82;25926;-56
2022/07/05 08:21:39;;;;;;;;;;;;;;;30.04;44.30;101027.42;1724689;81;25930;-56
2022/07/05 08:24:10;;;;;;;;;;;;;;;30.13;42.90;101020.30;1713546;82;25855;-56
2022/07/05 08:26:37;;;;;;;;;;;;;;;30.24;43.39;101026.78;1709450;82;27409;-56
2022/07/05 08:29:09;;;;;;;;;;;;;;;30.33;44.46;101015.50;1695078;81;26278;-57
2022/07/05 08:31:39;;;;;;;;;;;;;;;30.45;42.57;101016.70;1690421;83;25756;-56
2022/07/05 08:34:05;;;;;;;;;;;;;;;30.61;42.36;101009.38;1701235;83;25812;-57
2022/07/05 08:36:32;;;;;;;;;;;;;;;30.72;42.26;101008.37;1694064;83;25878;-56
2022/07/05 08:38:58;;;;;;;;;;;;;;;30.87;40.78;100999.31;1699235;83;28260;-56
2022/07/05 08:41:26;;;;;;;;;;;;;;;30.97;41.49;101009.64;1691299;81;25764;-56
2022/07/05 08:47:25;;;;;;;;;;;;;;;31.14;41.47;101000.32;1738913;80;26852;-56
2022/07/05 08:49:52;;;;;;;;;;;;;;;31.30;41.52;100999.29;1737769;81;25761;-56
2022/07/05 08:52:18;;;;;;;;;;;;;;;31.47;40.49;100999.64;1736779;80;28289;-56
2022/07/05 08:54:46;;;;;;;;;;;;;;;31.59;40.20;100996.08;1736128;80;25780;-56
2022/07/05 08:57:13;;;;;;;;;;;;;;;31.63;39.61;100986.64;1723362;81;25754;-56
2022/07/05 08:59:40;;;;;;;;;;;;;;;31.76;38.70;100987.56;1701096;83;26226;-56
2022/07/05 09:02:10;;;;;;;;;;;;;;;31.91;37.37;100987.30;1729272;81;25860;-55
2022/07/05 09:04:40;;;;;;;;;;;;;;;32.06;38.41;100986.50;1726618;81;28538;-56
2022/07/05 09:07:08;;;;;;;;;;;;;;;32.24;36.92;100990.17;1723911;81;26449;-56
2022/07/05 09:09:38;;;;;;;;;;;;;;;32.43;37.67;100988.23;1716911;81;25803;-56
2022/07/05 09:12:07;;;;;;;;;;;;;;;32.65;37.63;100982.91;1729525;81;25889;-56
2022/07/05 09:14:33;;;;;;;;;;;;;;;32.90;37.08;100980.68;1719975;80;25915;-57
2022/07/05 09:17:00;;;;;;;;;;;;;;;33.13;36.89;100978.41;1727618;81;27486;-56
2022/07/05 09:19:28;;;;;;;;;;;;;;;33.39;34.47;100981.94;1723545;81;25808;-56
2022/07/05 09:22:04;;;;;;;;;;;;;;;33.55;34.61;100977.95;1723335;81;25870;-57
2022/07/05 09:24:31;;;;;;;;;;;;;;;33.78;34.16;100976.16;1730640;81;25762;-56
2022/07/05 09:27:05;;;;;;;;;;;;;;;34.07;34.30;100974.88;1723040;81;25694;-57
2022/07/05 09:29:32;;;;;;;;;;;;;;;34.31;31.49;100972.17;1726221;82;28224;-57
2022/07/05 09:31:58;;;;;;;;;;;;;;;34.57;32.51;100973.38;1732524;81;25821;-56
2022/07/05 09:34:27;;;;;;;;;;;;;;;34.88;32.16;100963.28;1730096;81;25689;-57
2022/07/05 09:37:01;;;;;;;;;;;;;;;35.18;30.04;100953.47;1714642;82;25955;-56
2022/07/05 09:39:37;;;;;;;;;;;;;;;35.41;30.29;100960.20;1723006;81;25800;-57
2022/07/05 09:42:23;;;;;;;;;;;;;;;35.70;30.45;100960.64;1722744;81;27492;-56
2022/07/05 09:44:57;;;;;;;;;;;;;;;36.01;29.56;100965.78;1729125;81;26017;-56
2022/07/05 09:47:26;;;;;;;;;;;;;;;36.33;29.02;100962.17;1750637;80;25899;-56
2022/07/05 09:49:56;;;;;;;;;;;;;;;36.67;26.02;100953.80;1746923;80;25877;-56
2022/07/05 09:52:31;;;;;;;;;;;;;;;36.83;26.63;100950.95;1727211;81;25744;-56
2022/07/05 09:55:04;;;;;;;;;;;;;;;37.01;26.59;100956.80;1717124;82;27467;-57
2022/07/05 09:57:31;;;;;;;;;;;;;;;37.19;25.70;100955.02;1717559;80;26150;-56
2022/07/05 10:00:01;;;;;;;;;;;;;;;37.47;24.49;100960.62;1717734;80;25876;-56
2022/07/05 10:02:41;;;;;;;;;;;;;;;37.31;25.04;100960.09;1714591;82;25821;-56
2022/07/05 10:05:13;;;;;;;;;;;;;;;37.15;25.95;100959.02;1689139;81;25473;-56
2022/07/05 10:07:44;;;;;;;;;;;;;;;37.12;25.00;100952.63;1732720;81;27562;-57
2022/07/05 10:10:15;;;;;;;;;;;;;;;37.55;25.73;100948.09;1718487;81;25482;-57
2022/07/05 10:12:43;;;;;;;;;;;;;;;38.14;26.25;100961.90;1699050;82;25849;-57
2022/07/05 10:15:12;;;;;;;;;;;;;;;38.54;22.26;100953.57;1730421;81;25925;-57
2022/07/05 10:17:42;;;;;;;;;;;;;;;38.83;21.43;100948.86;1724414;81;25778;-57
2022/07/05 10:20:13;;;;;;;;;;;;;;;39.21;23.44;100949.47;1723595;81;27497;-56
2022/07/05 10:22:40;;;;;;;;;;;;;;;39.69;23.40;100934.51;1684148;83;25925;-57
2022/07/05 10:25:09;;;;;;;;;;;;;;;40.34;21.92;100929.59;1701195;83;26378;-57
2022/07/05 10:27:36;;;;;;;;;;;;;;;40.91;21.05;100928.39;1693430;83;25968;-57
2022/07/05 10:30:05;;;;;;;;;;;;;;;41.34;20.76;100927.91;1697557;83;25863;-57
2022/07/05 10:32:33;;;;;;;;;;;;;;;41.91;18.90;100931.34;1705791;82;28481;-57
2022/07/05 10:35:02;;;;;;;;;;;;;;;42.26;17.56;100928.72;1697475;83;25955;-57
2022/07/05 10:37:31;;;;;;;;;;;;;;;42.56;19.31;100929.39;1720691;82;25787;-57
2022/07/05 10:39:59;;;;;;;;;;;;;;;42.93;17.43;100922.36;1709098;81;26332;-57
2022/07/05 10:42:30;;;;;;;;;;;;;;;43.12;17.40;100918.94;1704752;81;25875;-57
2022/07/05 10:44:56;;;;;;;;;;;;;;;43.50;17.24;100916.03;1716313;82;28436;-56
2022/07/05 10:47:25;;;;;;;;;;;;;;;43.66;15.80;100909.05;1721571;80;25494;-57
2022/07/05 10:50:04;;;;;;;;;;;;;;;43.59;14.88;100912.49;1712821;81;25876;-56
2022/07/05 10:52:30;;;;;;;;;;;;;;;43.22;16.10;100909.16;1723919;82;25900;-57
2022/07/05 10:55:22;;;;;;;;;;;;;;;42.51;16.14;100902.17;1726988;81;27061;-56
2022/07/05 10:58:09;;;;;;;;;;;;;;;41.77;16.87;100898.52;1709945;81;27606;-57
2022/07/05 11:00:35;;;;;;;;;;;;;;;41.97;17.67;100903.10;1729859;80;25767;-57
2022/07/05 11:03:27;;;;;;;;;;;;;;;42.61;16.94;100894.40;1730864;81;25788;-57
2022/07/05 11:05:54;;;;;;;;;;;;;;;43.12;16.47;100892.62;1731952;80;26719;-56
2022/07/05 11:08:21;;;;;;;;;;;;;;;43.70;16.09;100888.75;1722612;82;25750;-57
2022/07/05 11:11:09;;;;;;;;;;;;;;;44.19;16.40;100893.36;1733791;81;29635;-57
2022/07/05 11:13:36;;;;;;;;;;;;;;;44.77;15.26;100882.89;1687470;81;25764;-57
2022/07/05 11:16:26;;;;;;;;;;;;;;;44.80;14.58;100877.09;1715112;82;25888;-56
2022/07/05 11:18:55;;;;;;;;;;;;;;;44.50;14.39;100885.48;1718231;82;25990;-57
2022/07/05 11:21:23;;;;;;;;;;;;;;;43.97;15.03;100880.59;1713071;82;25507;-56
2022/07/05 11:23:49;;;;;;;;;;;;;;;43.12;15.42;100887.81;1718800;82;28564;-57
2022/07/05 11:26:18;;;;;;;;;;;;;;;42.15;16.01;100881.72;1716870;82;25795;-56
2022/07/05 11:28:48;;;;;;;;;;;;;;;41.44;16.87;100876.70;1705075;82;36026;-57
2022/07/05 11:31:40;;;;;;;;;;;;;;;42.18;15.92;100877.60;1694723;82;26993;-56
2022/07/05 11:34:13;;;;;;;;;;;;;;;42.92;17.13;100868.97;1691595;83;25886;-56
2022/07/05 11:36:39;;;;;;;;;;;;;;;44.07;15.95;100863.89;1690654;83;27698;-57
2022/07/05 11:39:20;;;;;;;;;;;;;;;45.01;15.31;100859.12;1711113;82;25945;-56
2022/07/05 11:41:48;;;;;;;;;;;;;;;45.71;15.09;100856.58;1710812;81;25663;-57
2022/07/05 11:44:15;;;;;;;;;;;;;;;46.24;13.80;100857.37;1712719;81;25877;-57
2022/07/05 11:46:43;;;;;;;;;;;;;;;46.65;14.21;100858.86;1731396;80;25846;-57
2022/07/05 11:49:09;;;;;;;;;;;;;;;47.04;13.99;100854.37;1754848;80;27507;-57
2022/07/05 11:51:36;;;;;;;;;;;;;;;47.01;13.49;100860.25;1751002;80;26083;-57
2022/07/05 11:54:05;;;;;;;;;;;;;;;47.20;13.45;100854.80;1748251;80;25676;-56
2022/07/05 11:56:32;;;;;;;;;;;;;;;47.52;11.70;100845.88;1758840;80;27354;-56
2022/07/05 11:58:58;;;;;;;;;;;;;;;47.37;13.02;100844.86;1724574;80;25759;-57
2022/07/05 12:01:25;;;;;;;;;;;;;;;47.80;12.39;100832.53;1718851;81;27575;-57
2022/07/05 12:03:57;;;;;;;;;;;;;;;47.94;12.93;100834.11;1739296;80;25716;-57
2022/07/05 12:09:05;;;;;;;;;;;;;;;48.04;11.89;100831.16;1717769;81;26779;-57
2022/07/05 12:14:23;;;;;;;;;;;;;;;46.15;13.80;100836.07;1649320;84;27510;-57
2022/07/05 12:16:52;;;;;;;;;;;;;;;45.32;14.26;100833.87;1703286;81;25823;-57
2022/07/05 12:19:24;;;;;;;;;;;;;;;44.85;14.77;100825.14;1727304;80;25776;-57
2022/07/05 12:21:54;;;;;;;;;;;;;;;44.19;14.68;100827.55;1718696;80;25771;-56
2022/07/05 12:24:21;;;;;;;;;;;;;;;44.11;15.51;100814.99;1716389;81;25944;-57
2022/07/05 12:26:50;;;;;;;;;;;;;;;45.13;14.84;100812.77;1716954;81;27483;-57
2022/07/05 12:29:16;;;;;;;;;;;;;;;45.97;14.56;100815.27;1686064;82;25748;-57
2022/07/05 12:32:01;;;;;;;;;;;;;;;46.54;13.62;100816.02;1706832;82;25841;-57
2022/07/05 12:34:29;;;;;;;;;;;;;;;46.01;14.32;100813.32;1727717;81;25774;-57
2022/07/05 12:36:57;;;;;;;;;;;;;;;45.74;13.80;100816.64;1720001;81;25690;-57
2022/07/05 12:39:24;;;;;;;;;;;;;;;45.70;14.00;100810.09;1729980;81;27468;-58
2022/07/05 12:41:50;;;;;;;;;;;;;;;46.21;14.30;100805.52;1714569;81;25793;-57
2022/07/05 12:44:21;;;;;;;;;;;;;;;46.70;13.51;100803.86;1715309;82;25812;-56
2022/07/05 12:46:51;;;;;;;;;;;;;;;46.30;13.64;100799.59;1715466;80;26512;-57
2022/07/05 12:49:18;;;;;;;;;;;;;;;46.38;13.76;100803.37;1721769;81;25479;-56
2022/07/05 12:51:46;;;;;;;;;;;;;;;47.12;13.50;100802.01;1727922;82;27481;-56
2022/07/05 13:00:10;;;;;;;;;;;;;;;49.47;11.21;100793.91;1738296;81;25951;-58
2022/07/05 13:02:42;;;;;;;;;;;;;;;49.59;11.02;100780.47;1705518;82;25822;-57